ěÝzenÝ letovÚho provozu ╚eskÚ republiky
Letiste: LKTB Aktualizace: 12.07.2024 23:00:41  UTC
 METAR LKTB 12.07. 23:00 ...
METAR LKTB 122300Z 15004KT CAVOK 18/18 Q1009 NOSIG=
 TAF LKTB 12.07. 17:00 ...
TAF LKTB 121700Z 1218/1318 15010KT 9999 NSC      TEMPO 1218/1222 15015KT 6000 SHRA BKN020TCU      PROB40 TEMPO 1218/1221 20018G36KT 2000 +TSRA SCT010 BKN020CB      BECMG 1300/1302 23006KT 9999 BKN018      BECMG 1308/1309 32008KT SCT040=